Time;durP1;ratioP1;P1;durP2;ratioP2;P2;SDS_P1;SDS_P2;PMS_P1;PMS_P2;Temp;Humidity;BMP_temperature;BMP_pressure;BME280_temperature;BME280_humidity;BME280_pressure;Samples;Min_cycle;Max_cycle;Signal;HPM_P1;HPM_P2
2024/01/26 00:00:55;;;;;;;;;6.25;3.75;;;;;;;;5101808;27;61786;-75
2024/01/26 00:03:20;;;;;;;;;9.75;7.25;;;;;;;;5102033;27;61912;-75
2024/01/26 00:05:45;;;;;;;;;5.75;4.00;;;;;;;;5102025;27;61784;-75
2024/01/26 00:08:12;;;;;;;;;9.00;7.00;;;;;;;;5102487;27;61736;-75
2024/01/26 00:10:38;;;;;;;;;8.00;6.50;;;;;;;;5100581;27;62144;-75
2024/01/26 00:13:03;;;;;;;;;5.25;5.00;;;;;;;;5101882;27;62125;-75
2024/01/26 00:15:28;;;;;;;;;9.00;7.00;;;;;;;;5100358;27;61970;-75
2024/01/26 00:17:53;;;;;;;;;4.50;4.00;;;;;;;;5100648;27;61871;-75
2024/01/26 00:20:18;;;;;;;;;9.00;8.00;;;;;;;;5101789;27;62255;-75
2024/01/26 00:22:44;;;;;;;;;6.75;5.75;;;;;;;;5101373;27;61818;-75
2024/01/26 00:25:09;;;;;;;;;6.25;6.00;;;;;;;;5100212;27;62163;-75
2024/01/26 00:27:35;;;;;;;;;6.50;4.50;;;;;;;;5102183;27;61829;-75
2024/01/26 00:30:01;;;;;;;;;7.00;4.00;;;;;;;;5101556;27;61945;-75
2024/01/26 00:32:26;;;;;;;;;9.25;7.00;;;;;;;;5099752;27;63805;-75
2024/01/26 00:34:51;;;;;;;;;8.75;7.25;;;;;;;;5101864;27;61770;-75
2024/01/26 00:37:17;;;;;;;;;8.50;7.50;;;;;;;;5100646;27;62105;-75
2024/01/26 00:39:42;;;;;;;;;8.25;4.50;;;;;;;;5100618;27;62148;-75
2024/01/26 00:42:07;;;;;;;;;7.25;6.75;;;;;;;;5101367;27;62947;-75
2024/01/26 00:44:32;;;;;;;;;9.25;8.00;;;;;;;;5099789;27;61804;-75
2024/01/26 00:46:57;;;;;;;;;6.50;4.50;;;;;;;;5097718;27;62000;-75
2024/01/26 00:49:23;;;;;;;;;8.50;5.00;;;;;;;;5081734;27;61807;-75
2024/01/26 00:51:49;;;;;;;;;8.00;6.00;;;;;;;;5081121;27;61930;-75
2024/01/26 00:54:14;;;;;;;;;7.25;5.25;;;;;;;;5087711;27;61956;-75
2024/01/26 00:56:39;;;;;;;;;7.00;6.00;;;;;;;;5105169;27;61897;-75
2024/01/26 00:59:05;;;;;;;;;8.75;6.25;;;;;;;;5103513;27;62219;-75
2024/01/26 01:01:30;;;;;;;;;6.50;5.25;;;;;;;;5111217;27;62058;-75
2024/01/26 01:03:56;;;;;;;;;8.50;7.25;;;;;;;;5125160;27;61768;-75
2024/01/26 01:06:21;;;;;;;;;8.75;7.75;;;;;;;;5125879;27;62086;-75
2024/01/26 01:08:47;;;;;;;;;9.50;5.00;;;;;;;;5123554;27;62186;-75
2024/01/26 01:11:12;;;;;;;;;11.00;8.00;;;;;;;;5104069;27;64290;-75
2024/01/26 01:13:38;;;;;;;;;8.00;5.00;;;;;;;;5103157;27;62056;-75
2024/01/26 01:16:04;;;;;;;;;6.75;6.00;;;;;;;;5113799;27;62698;-75
2024/01/26 01:18:29;;;;;;;;;9.75;6.00;;;;;;;;5125977;27;61791;-75
2024/01/26 01:20:54;;;;;;;;;11.75;7.50;;;;;;;;5123341;27;64632;-75
2024/01/26 01:23:20;;;;;;;;;9.25;8.00;;;;;;;;5125533;27;61867;-75
2024/01/26 01:25:45;;;;;;;;;6.25;6.25;;;;;;;;5116152;27;61944;-75
2024/01/26 01:28:11;;;;;;;;;12.75;6.75;;;;;;;;5104645;27;62214;-75
2024/01/26 01:30:36;;;;;;;;;6.50;5.00;;;;;;;;5103653;27;61910;-75
2024/01/26 01:33:02;;;;;;;;;11.00;9.00;;;;;;;;5104083;27;61955;-75
2024/01/26 01:35:27;;;;;;;;;11.00;8.25;;;;;;;;5104855;27;61744;-75
2024/01/26 01:37:52;;;;;;;;;11.25;8.50;;;;;;;;5103040;27;61981;-75
2024/01/26 01:40:17;;;;;;;;;7.00;7.00;;;;;;;;5102199;27;64620;-75
2024/01/26 01:42:42;;;;;;;;;5.00;4.25;;;;;;;;5102770;27;61848;-75
2024/01/26 01:45:13;;;;;;;;;10.00;6.00;;;;;;;;5104252;27;61724;-75
2024/01/26 01:47:38;;;;;;;;;4.50;4.50;;;;;;;;5104632;27;61887;-75
2024/01/26 01:50:03;;;;;;;;;8.00;8.00;;;;;;;;5103761;27;61977;-75
2024/01/26 01:52:29;;;;;;;;;12.50;9.25;;;;;;;;5102993;27;61946;-75
2024/01/26 01:54:56;;;;;;;;;9.00;7.00;;;;;;;;5102771;27;61872;-75
2024/01/26 01:57:23;;;;;;;;;10.75;7.00;;;;;;;;5103829;27;61842;-75
2024/01/26 01:59:48;;;;;;;;;10.75;6.25;;;;;;;;5103173;27;61875;-75
2024/01/26 02:02:14;;;;;;;;;7.00;7.00;;;;;;;;5105086;27;62005;-75
2024/01/26 02:04:39;;;;;;;;;13.50;9.75;;;;;;;;5117684;27;61929;-75
2024/01/26 02:07:04;;;;;;;;;9.25;7.00;;;;;;;;5124671;27;61992;-75
2024/01/26 02:09:30;;;;;;;;;11.00;8.50;;;;;;;;5115463;27;64538;-75
2024/01/26 02:11:55;;;;;;;;;6.00;6.00;;;;;;;;5103675;27;61855;-75
2024/01/26 02:14:21;;;;;;;;;15.75;7.00;;;;;;;;5103915;27;61888;-75
2024/01/26 02:16:56;;;;;;;;;6.00;5.75;;;;;;;;5104278;27;61860;-75
2024/01/26 02:19:22;;;;;;;;;7.50;6.25;;;;;;;;5101706;27;63821;-75
2024/01/26 02:21:47;;;;;;;;;6.00;6.00;;;;;;;;5103697;27;61757;-75
2024/01/26 02:24:13;;;;;;;;;9.25;7.50;;;;;;;;5103293;27;61874;-75
2024/01/26 02:26:38;;;;;;;;;7.25;5.25;;;;;;;;5103738;27;62145;-75
2024/01/26 02:29:04;;;;;;;;;9.25;7.25;;;;;;;;5103050;27;62181;-75
2024/01/26 02:31:29;;;;;;;;;6.50;6.50;;;;;;;;5101529;27;61783;-75
2024/01/26 02:33:54;;;;;;;;;8.50;6.50;;;;;;;;5103955;27;61928;-75
2024/01/26 02:36:19;;;;;;;;;12.50;7.50;;;;;;;;5103521;27;61906;-75
2024/01/26 02:38:44;;;;;;;;;6.25;6.00;;;;;;;;5103096;27;61841;-75
2024/01/26 02:41:10;;;;;;;;;9.75;5.50;;;;;;;;5102991;27;62282;-75
2024/01/26 02:43:35;;;;;;;;;6.50;5.50;;;;;;;;5103768;27;62016;-75
2024/01/26 02:46:00;;;;;;;;;6.00;6.00;;;;;;;;5103392;27;62103;-75
2024/01/26 02:48:25;;;;;;;;;8.75;7.25;;;;;;;;5102413;27;61882;-75
2024/01/26 02:50:50;;;;;;;;;7.25;6.75;;;;;;;;5102060;27;61879;-75
2024/01/26 02:53:16;;;;;;;;;4.50;4.00;;;;;;;;5103416;27;61802;-75
2024/01/26 02:55:41;;;;;;;;;9.00;7.00;;;;;;;;5101523;27;62119;-75
2024/01/26 02:58:06;;;;;;;;;7.75;7.00;;;;;;;;5102980;27;61808;-75
2024/01/26 03:00:31;;;;;;;;;10.25;7.00;;;;;;;;5102521;27;61721;-75
2024/01/26 03:02:57;;;;;;;;;5.50;5.50;;;;;;;;5103467;27;61846;-75
2024/01/26 03:05:22;;;;;;;;;8.00;6.00;;;;;;;;5101437;27;62177;-75
2024/01/26 03:07:47;;;;;;;;;9.00;8.00;;;;;;;;5102703;27;62030;-75
2024/01/26 03:10:12;;;;;;;;;9.75;7.50;;;;;;;;5101846;27;61915;-75
2024/01/26 03:12:38;;;;;;;;;7.75;6.75;;;;;;;;5103009;27;61829;-75
2024/01/26 03:15:03;;;;;;;;;6.50;5.50;;;;;;;;5102654;27;61824;-75
2024/01/26 03:17:28;;;;;;;;;5.50;5.50;;;;;;;;5100982;27;63541;-75
2024/01/26 03:19:54;;;;;;;;;6.25;5.00;;;;;;;;5103062;27;62015;-75
2024/01/26 03:22:19;;;;;;;;;9.50;8.00;;;;;;;;5103324;27;61840;-75
2024/01/26 03:24:45;;;;;;;;;6.75;5.25;;;;;;;;5102224;27;62045;-75
2024/01/26 03:27:10;;;;;;;;;9.00;4.25;;;;;;;;5102249;27;61896;-75
2024/01/26 03:29:35;;;;;;;;;2.50;2.50;;;;;;;;5102238;27;62087;-75
2024/01/26 03:32:01;;;;;;;;;7.25;7.25;;;;;;;;5102693;27;61953;-75
2024/01/26 03:34:27;;;;;;;;;6.25;5.00;;;;;;;;5102976;27;61836;-75
2024/01/26 03:36:52;;;;;;;;;8.00;7.25;;;;;;;;5102011;27;61983;-75
2024/01/26 03:39:18;;;;;;;;;7.75;5.00;;;;;;;;5102189;27;62200;-75
2024/01/26 03:41:44;;;;;;;;;9.50;6.00;;;;;;;;5102436;27;62087;-75
2024/01/26 03:44:10;;;;;;;;;9.50;6.00;;;;;;;;5103036;27;61886;-75
2024/01/26 03:46:39;;;;;;;;;6.25;5.50;;;;;;;;5100752;27;61841;-75
2024/01/26 03:49:04;;;;;;;;;9.25;6.75;;;;;;;;5082037;27;61967;-75
2024/01/26 03:51:30;;;;;;;;;11.00;6.00;;;;;;;;5080989;28;61984;-75
2024/01/26 03:53:55;;;;;;;;;8.75;7.50;;;;;;;;5093118;27;61741;-75
2024/01/26 03:56:20;;;;;;;;;6.75;6.75;;;;;;;;5101364;27;61858;-75
2024/01/26 03:58:45;;;;;;;;;9.50;7.50;;;;;;;;5106946;27;61867;-75
2024/01/26 04:01:11;;;;;;;;;8.00;6.00;;;;;;;;5122748;27;61941;-75
2024/01/26 04:03:36;;;;;;;;;7.75;6.25;;;;;;;;5121992;27;61795;-75
2024/01/26 04:06:03;;;;;;;;;10.75;7.00;;;;;;;;5122030;27;62259;-75
2024/01/26 04:08:28;;;;;;;;;6.75;4.75;;;;;;;;5122744;27;61931;-75
2024/01/26 04:10:54;;;;;;;;;6.00;6.00;;;;;;;;5103136;27;62113;-75
2024/01/26 04:13:19;;;;;;;;;6.25;5.25;;;;;;;;5102278;27;61669;-75
2024/01/26 04:15:46;;;;;;;;;7.25;6.50;;;;;;;;5101110;27;61800;-75
2024/01/26 04:18:12;;;;;;;;;16.50;9.00;;;;;;;;5102421;27;61896;-75
2024/01/26 04:20:37;;;;;;;;;8.00;7.00;;;;;;;;5102255;27;61775;-75
2024/01/26 04:23:02;;;;;;;;;8.50;7.25;;;;;;;;5101768;27;62086;-75
2024/01/26 04:25:27;;;;;;;;;6.00;6.00;;;;;;;;5101383;27;62997;-75
2024/01/26 04:27:52;;;;;;;;;5.50;5.50;;;;;;;;5103418;27;61802;-75
2024/01/26 04:30:18;;;;;;;;;10.75;5.50;;;;;;;;5105285;27;62117;-75
2024/01/26 04:32:43;;;;;;;;;9.25;5.00;;;;;;;;5105520;27;61804;-75
2024/01/26 04:35:10;;;;;;;;;11.50;8.00;;;;;;;;5104990;27;61924;-75
2024/01/26 04:37:36;;;;;;;;;8.00;5.00;;;;;;;;5103854;27;61806;-75
2024/01/26 04:40:01;;;;;;;;;8.75;7.00;;;;;;;;5105127;27;62092;-75
2024/01/26 04:42:26;;;;;;;;;11.00;7.00;;;;;;;;5105973;27;61812;-75
2024/01/26 04:44:51;;;;;;;;;8.00;7.00;;;;;;;;5104820;27;62029;-75
2024/01/26 04:47:17;;;;;;;;;10.25;6.00;;;;;;;;5105295;27;61894;-75
2024/01/26 04:49:42;;;;;;;;;6.25;5.75;;;;;;;;5103824;27;61663;-75
2024/01/26 04:52:08;;;;;;;;;8.50;5.00;;;;;;;;5104946;27;61852;-75
2024/01/26 04:54:33;;;;;;;;;10.00;9.00;;;;;;;;5104705;27;62392;-75
2024/01/26 04:56:58;;;;;;;;;11.50;5.50;;;;;;;;5103832;27;61854;-75
2024/01/26 04:59:23;;;;;;;;;8.50;8.00;;;;;;;;5103512;27;61993;-75
2024/01/26 05:01:49;;;;;;;;;10.75;7.50;;;;;;;;5103472;27;61817;-75
2024/01/26 05:04:14;;;;;;;;;5.75;4.75;;;;;;;;5104577;27;62817;-75
2024/01/26 05:06:39;;;;;;;;;8.50;7.50;;;;;;;;5125272;27;61788;-75
2024/01/26 05:09:05;;;;;;;;;9.00;7.50;;;;;;;;5121959;27;61697;-75
2024/01/26 05:11:30;;;;;;;;;11.25;7.25;;;;;;;;5102757;27;61952;-75
2024/01/26 05:13:55;;;;;;;;;10.75;8.50;;;;;;;;5102210;27;63248;-75
2024/01/26 05:16:20;;;;;;;;;11.75;8.00;;;;;;;;5109462;27;61811;-75
2024/01/26 05:18:45;;;;;;;;;12.25;5.50;;;;;;;;5104904;27;61692;-75
2024/01/26 05:21:11;;;;;;;;;7.00;7.00;;;;;;;;5103832;27;61649;-75
2024/01/26 05:23:36;;;;;;;;;7.25;7.00;;;;;;;;5104246;27;61934;-75
2024/01/26 05:26:01;;;;;;;;;8.75;4.75;;;;;;;;5104068;27;62184;-75
2024/01/26 05:28:26;;;;;;;;;5.75;4.75;;;;;;;;5105979;27;61697;-75
2024/01/26 05:30:52;;;;;;;;;5.50;5.25;;;;;;;;5103029;27;61863;-75
2024/01/26 05:33:17;;;;;;;;;3.00;3.00;;;;;;;;5102047;27;64458;-75
2024/01/26 05:35:43;;;;;;;;;5.50;4.75;;;;;;;;5103919;27;61912;-75
2024/01/26 05:38:08;;;;;;;;;7.00;7.00;;;;;;;;5107045;27;61895;-75
2024/01/26 05:40:33;;;;;;;;;8.00;5.75;;;;;;;;5104107;27;61969;-75
2024/01/26 05:42:58;;;;;;;;;8.25;5.50;;;;;;;;5102270;27;63872;-75
2024/01/26 05:45:24;;;;;;;;;8.25;5.00;;;;;;;;5103701;27;61748;-75
2024/01/26 05:47:49;;;;;;;;;5.00;5.00;;;;;;;;5103388;27;61725;-74
2024/01/26 05:50:15;;;;;;;;;13.50;5.50;;;;;;;;5102335;27;62319;-74
2024/01/26 05:52:41;;;;;;;;;6.25;4.75;;;;;;;;5103773;27;61881;-75
2024/01/26 05:55:06;;;;;;;;;9.50;7.75;;;;;;;;5102666;27;62025;-75
2024/01/26 05:57:31;;;;;;;;;7.50;5.00;;;;;;;;5104029;27;61850;-75
2024/01/26 05:59:57;;;;;;;;;7.75;6.75;;;;;;;;5102543;27;61797;-75
2024/01/26 06:02:22;;;;;;;;;11.00;7.00;;;;;;;;5102060;27;64684;-75
2024/01/26 06:04:47;;;;;;;;;6.75;6.75;;;;;;;;5103591;27;62109;-75
2024/01/26 06:07:12;;;;;;;;;8.50;5.25;;;;;;;;5102571;27;61905;-78
2024/01/26 06:09:39;;;;;;;;;7.75;5.50;;;;;;;;5102335;27;61783;-77
2024/01/26 06:12:05;;;;;;;;;7.25;6.50;;;;;;;;5102123;27;63891;-78
2024/01/26 06:14:30;;;;;;;;;13.50;6.50;;;;;;;;5106486;27;61924;-78
2024/01/26 06:16:55;;;;;;;;;4.25;4.25;;;;;;;;5104023;27;61955;-78
2024/01/26 06:19:20;;;;;;;;;7.00;1.50;;;;;;;;5103513;27;62169;-78
2024/01/26 06:21:46;;;;;;;;;7.00;4.50;;;;;;;;5110810;27;61761;-79
2024/01/26 06:24:11;;;;;;;;;3.50;3.50;;;;;;;;5124604;27;61713;-78
2024/01/26 06:26:37;;;;;;;;;5.00;4.00;;;;;;;;5124857;27;61800;-78
2024/01/26 06:29:03;;;;;;;;;7.25;6.00;;;;;;;;5118290;27;61847;-78
2024/01/26 06:31:28;;;;;;;;;7.25;7.00;;;;;;;;5102223;27;62842;-78
2024/01/26 06:33:54;;;;;;;;;8.75;7.00;;;;;;;;5107355;27;61834;-79
2024/01/26 06:36:19;;;;;;;;;10.25;6.75;;;;;;;;5103557;27;62157;-79
2024/01/26 06:38:44;;;;;;;;;7.75;5.00;;;;;;;;5102851;27;61950;-79
2024/01/26 06:41:09;;;;;;;;;9.50;6.25;;;;;;;;5102781;27;62779;-79
2024/01/26 06:43:35;;;;;;;;;11.25;8.25;;;;;;;;5102922;27;61740;-78
2024/01/26 06:46:01;;;;;;;;;12.25;7.25;;;;;;;;5104651;27;62178;-75
2024/01/26 06:48:26;;;;;;;;;8.00;4.00;;;;;;;;5101450;27;61737;-79
2024/01/26 06:50:52;;;;;;;;;7.50;7.00;;;;;;;;5101535;27;61900;-74
2024/01/26 06:53:18;;;;;;;;;6.75;5.75;;;;;;;;5102174;27;61837;-75
2024/01/26 06:55:45;;;;;;;;;7.50;7.25;;;;;;;;5102004;27;61713;-75
2024/01/26 06:58:10;;;;;;;;;4.25;4.00;;;;;;;;5102918;27;61878;-78
2024/01/26 07:00:35;;;;;;;;;8.00;6.25;;;;;;;;5099566;27;64823;-74
2024/01/26 07:03:00;;;;;;;;;2.00;2.00;;;;;;;;5100473;27;61816;-74
2024/01/26 07:05:26;;;;;;;;;6.50;6.50;;;;;;;;5102267;27;63117;-76
2024/01/26 07:07:51;;;;;;;;;6.25;6.25;;;;;;;;5100019;27;61972;-74
2024/01/26 07:10:16;;;;;;;;;7.00;7.00;;;;;;;;5100185;27;62021;-74
2024/01/26 07:12:41;;;;;;;;;6.50;6.00;;;;;;;;5100507;27;61817;-75
2024/01/26 07:15:07;;;;;;;;;4.75;4.50;;;;;;;;5100375;27;62086;-75
2024/01/26 07:17:33;;;;;;;;;6.75;5.00;;;;;;;;5101848;27;62111;-75
2024/01/26 07:19:58;;;;;;;;;9.00;6.00;;;;;;;;5101809;27;62034;-75
2024/01/26 07:22:23;;;;;;;;;8.00;6.00;;;;;;;;5102068;27;61926;-75
2024/01/26 07:24:48;;;;;;;;;5.25;5.25;;;;;;;;5101203;27;62054;-74
2024/01/26 07:27:13;;;;;;;;;5.50;4.50;;;;;;;;5101746;27;61982;-75
2024/01/26 07:29:39;;;;;;;;;5.00;5.00;;;;;;;;5102127;27;63029;-74
2024/01/26 07:32:04;;;;;;;;;3.50;3.00;;;;;;;;5099556;27;62091;-75
2024/01/26 07:34:30;;;;;;;;;11.00;5.00;;;;;;;;5114727;27;62506;-75
2024/01/26 07:36:55;;;;;;;;;7.00;6.00;;;;;;;;5128835;27;61845;-75
2024/01/26 07:39:22;;;;;;;;;9.50;5.50;;;;;;;;5109313;27;62724;-76
2024/01/26 07:41:47;;;;;;;;;4.25;4.25;;;;;;;;5102067;27;62049;-77
2024/01/26 07:44:13;;;;;;;;;13.00;6.25;;;;;;;;5102562;27;61831;-77
2024/01/26 07:46:41;;;;;;;;;5.00;3.50;;;;;;;;5101992;27;62341;-75
2024/01/26 07:49:10;;;;;;;;;4.50;4.00;;;;;;;;5100790;27;61782;-75
2024/01/26 07:51:36;;;;;;;;;8.50;5.00;;;;;;;;5102265;27;61889;-74
2024/01/26 07:54:02;;;;;;;;;4.75;4.75;;;;;;;;5102916;27;61923;-74
2024/01/26 07:56:27;;;;;;;;;6.00;4.00;;;;;;;;5099655;27;62032;-74
2024/01/26 07:58:52;;;;;;;;;3.00;2.00;;;;;;;;5105193;27;61912;-74
2024/01/26 08:01:18;;;;;;;;;7.25;2.75;;;;;;;;5105669;27;61856;-74
2024/01/26 08:03:44;;;;;;;;;4.25;3.25;;;;;;;;5110682;27;61908;-74
2024/01/26 08:06:09;;;;;;;;;3.00;3.00;;;;;;;;5116156;27;62271;-74
2024/01/26 08:08:34;;;;;;;;;3.00;3.00;;;;;;;;5114320;27;61975;-75
2024/01/26 08:10:59;;;;;;;;;4.50;4.00;;;;;;;;5113328;27;62087;-75
2024/01/26 08:13:25;;;;;;;;;5.75;3.00;;;;;;;;5114170;27;61747;-74
2024/01/26 08:15:50;;;;;;;;;5.50;3.50;;;;;;;;5116374;27;61964;-75
2024/01/26 08:18:15;;;;;;;;;6.25;2.25;;;;;;;;5112657;27;65110;-76
2024/01/26 08:20:41;;;;;;;;;4.25;3.25;;;;;;;;5114697;27;61853;-75
2024/01/26 08:23:06;;;;;;;;;2.00;2.00;;;;;;;;5105708;27;61752;-75
2024/01/26 08:25:32;;;;;;;;;2.00;2.00;;;;;;;;5091468;27;63048;-75
2024/01/26 08:27:57;;;;;;;;;3.75;2.75;;;;;;;;5101585;27;61793;-77
2024/01/26 08:30:23;;;;;;;;;2.75;2.75;;;;;;;;5104385;27;61976;-75
2024/01/26 08:32:49;;;;;;;;;2.50;1.25;;;;;;;;5104037;27;61942;-75
2024/01/26 08:35:14;;;;;;;;;2.50;1.50;;;;;;;;5103991;27;61900;-77
2024/01/26 08:37:39;;;;;;;;;3.00;3.00;;;;;;;;5105135;27;61905;-75
2024/01/26 08:40:06;;;;;;;;;1.00;1.00;;;;;;;;5104961;27;62066;-75
2024/01/26 08:42:32;;;;;;;;;1.00;1.00;;;;;;;;5103939;27;62119;-75
2024/01/26 08:44:57;;;;;;;;;2.00;2.00;;;;;;;;5105422;27;61820;-75
2024/01/26 08:47:22;;;;;;;;;2.75;1.75;;;;;;;;5104118;27;61893;-75
2024/01/26 08:49:47;;;;;;;;;1.00;1.00;;;;;;;;5103782;27;61976;-75
2024/01/26 08:52:13;;;;;;;;;2.00;2.00;;;;;;;;5103687;27;62155;-75
2024/01/26 08:54:38;;;;;;;;;2.50;2.50;;;;;;;;5104952;27;61977;-75
2024/01/26 08:57:03;;;;;;;;;4.00;2.00;;;;;;;;5102004;27;63430;-75
2024/01/26 08:59:28;;;;;;;;;4.50;3.00;;;;;;;;5104760;27;61896;-75
2024/01/26 09:01:54;;;;;;;;;1.75;1.75;;;;;;;;5107633;27;61819;-75
2024/01/26 09:04:19;;;;;;;;;2.00;2.00;;;;;;;;5112464;27;62268;-75
2024/01/26 09:06:44;;;;;;;;;1.50;1.00;;;;;;;;5114525;27;62019;-75
2024/01/26 09:09:10;;;;;;;;;2.50;2.25;;;;;;;;5111360;27;61786;-75
2024/01/26 09:11:35;;;;;;;;;3.00;3.00;;;;;;;;5113845;27;61872;-75
2024/01/26 09:14:01;;;;;;;;;3.00;1.00;;;;;;;;5113940;27;61729;-75
2024/01/26 09:16:26;;;;;;;;;2.75;2.75;;;;;;;;5114467;27;62596;-75
2024/01/26 09:18:51;;;;;;;;;3.00;3.00;;;;;;;;5112153;27;62023;-75
2024/01/26 09:21:17;;;;;;;;;3.00;1.50;;;;;;;;5114825;27;62230;-75
2024/01/26 09:23:45;;;;;;;;;4.75;1.50;;;;;;;;5115072;27;62110;-75
2024/01/26 09:26:11;;;;;;;;;3.25;3.25;;;;;;;;5110466;27;64590;-75
2024/01/26 09:28:36;;;;;;;;;4.75;4.00;;;;;;;;5114583;27;61749;-75
2024/01/26 09:31:02;;;;;;;;;2.50;1.50;;;;;;;;5106942;27;61865;-75
2024/01/26 09:33:27;;;;;;;;;3.25;3.25;;;;;;;;5109078;27;61839;-75
2024/01/26 09:35:53;;;;;;;;;3.00;2.00;;;;;;;;5101905;27;63642;-75
2024/01/26 09:38:19;;;;;;;;;1.00;1.00;;;;;;;;5102736;27;61748;-75
2024/01/26 09:40:44;;;;;;;;;2.00;2.00;;;;;;;;5104038;27;61661;-75
2024/01/26 09:43:10;;;;;;;;;1.00;1.00;;;;;;;;5103086;27;62120;-75
2024/01/26 09:45:35;;;;;;;;;1.50;1.50;;;;;;;;5103472;27;62170;-75
2024/01/26 09:48:04;;;;;;;;;2.25;1.00;;;;;;;;5099826;27;62035;-75
2024/01/26 09:50:30;;;;;;;;;2.25;2.25;;;;;;;;5103193;27;61746;-75
2024/01/26 09:52:57;;;;;;;;;2.75;1.50;;;;;;;;5104819;27;61773;-75
2024/01/26 09:55:22;;;;;;;;;3.00;1.50;;;;;;;;5102862;27;61878;-75
2024/01/26 09:57:48;;;;;;;;;1.00;1.00;;;;;;;;5104228;27;61989;-75
2024/01/26 10:00:14;;;;;;;;;0.25;0.00;;;;;;;;5102309;27;61910;-75
2024/01/26 10:02:41;;;;;;;;;0.00;0.00;;;;;;;;5104229;27;61743;-75
2024/01/26 10:05:06;;;;;;;;;0.00;0.00;;;;;;;;5101879;27;63702;-75
2024/01/26 10:07:31;;;;;;;;;0.75;0.00;;;;;;;;5102485;27;61963;-75
2024/01/26 10:09:57;;;;;;;;;1.50;0.00;;;;;;;;5103922;27;61756;-75
2024/01/26 10:12:22;;;;;;;;;2.00;0.00;;;;;;;;5104185;27;61845;-74
2024/01/26 10:14:49;;;;;;;;;0.00;0.00;;;;;;;;5103765;27;62882;-74
2024/01/26 10:17:18;;;;;;;;;0.00;0.00;;;;;;;;5103843;27;61972;-74
2024/01/26 10:19:43;;;;;;;;;0.50;0.00;;;;;;;;5104284;27;62242;-74
2024/01/26 10:22:08;;;;;;;;;1.00;0.00;;;;;;;;5104188;27;61783;-74
2024/01/26 10:24:33;;;;;;;;;0.00;0.00;;;;;;;;5100865;27;63577;-74
2024/01/26 10:26:58;;;;;;;;;1.75;0.00;;;;;;;;5103574;27;61868;-75
2024/01/26 10:29:24;;;;;;;;;0.00;0.00;;;;;;;;5102054;27;61883;-74
2024/01/26 10:31:50;;;;;;;;;0.50;0.00;;;;;;;;5104013;27;61897;-74
2024/01/26 10:34:16;;;;;;;;;1.00;0.00;;;;;;;;5103412;27;62614;-75
2024/01/26 10:36:44;;;;;;;;;3.50;0.00;;;;;;;;5103509;27;61715;-74
2024/01/26 10:39:29;;;;;;;;;0.00;0.00;;;;;;;;5103662;27;61784;-75
2024/01/26 10:41:57;;;;;;;;;2.50;0.75;;;;;;;;5106234;27;61808;-75
2024/01/26 10:44:22;;;;;;;;;0.00;0.00;;;;;;;;5123629;27;62042;-75
2024/01/26 10:46:48;;;;;;;;;1.50;1.00;;;;;;;;5121142;27;61941;-75
2024/01/26 10:49:14;;;;;;;;;0.00;0.00;;;;;;;;5103735;27;61683;-75
2024/01/26 10:51:43;;;;;;;;;0.00;0.00;;;;;;;;5103492;27;61811;-75
2024/01/26 10:54:09;;;;;;;;;1.00;0.75;;;;;;;;5102824;27;61780;-75
2024/01/26 10:56:34;;;;;;;;;2.00;1.00;;;;;;;;5102751;27;61812;-75
2024/01/26 10:58:59;;;;;;;;;0.50;0.50;;;;;;;;5103656;27;61875;-75
2024/01/26 11:01:25;;;;;;;;;2.00;2.00;;;;;;;;5103081;27;61967;-75
2024/01/26 11:03:50;;;;;;;;;1.25;0.25;;;;;;;;5101105;27;64299;-75
2024/01/26 11:06:16;;;;;;;;;1.00;1.00;;;;;;;;5102811;27;61944;-75
2024/01/26 11:08:42;;;;;;;;;3.00;1.00;;;;;;;;5102639;27;61837;-76
2024/01/26 11:11:07;;;;;;;;;1.00;1.00;;;;;;;;5101673;27;61858;-75
2024/01/26 11:13:37;;;;;;;;;2.75;1.00;;;;;;;;5106766;27;61906;-76
2024/01/26 11:16:03;;;;;;;;;2.50;0.00;;;;;;;;5112117;27;61737;-75
2024/01/26 11:18:28;;;;;;;;;0.00;0.00;;;;;;;;5113354;27;62017;-75
2024/01/26 11:20:53;;;;;;;;;4.00;2.00;;;;;;;;5113339;27;61936;-75
2024/01/26 11:23:20;;;;;;;;;2.00;1.00;;;;;;;;5111200;27;62535;-75
2024/01/26 11:25:50;;;;;;;;;1.00;0.00;;;;;;;;5108715;27;61881;-75
2024/01/26 11:28:16;;;;;;;;;3.50;0.00;;;;;;;;5119466;27;62160;-75
2024/01/26 11:30:44;;;;;;;;;2.75;1.00;;;;;;;;5119633;27;62076;-75
2024/01/26 11:33:19;;;;;;;;;1.00;1.00;;;;;;;;5101989;27;62626;-75
2024/01/26 11:35:45;;;;;;;;;1.50;1.00;;;;;;;;5101962;27;61789;-75
2024/01/26 11:38:11;;;;;;;;;3.00;1.00;;;;;;;;5118964;27;62105;-75
2024/01/26 11:40:36;;;;;;;;;5.50;0.25;;;;;;;;5123673;27;61920;-75
2024/01/26 11:43:02;;;;;;;;;4.00;1.25;;;;;;;;5122888;27;62790;-75
2024/01/26 11:45:37;;;;;;;;;1.50;1.00;;;;;;;;5123250;27;61891;-75
2024/01/26 11:48:05;;;;;;;;;4.00;1.00;;;;;;;;5109128;27;62030;-76
2024/01/26 11:50:30;;;;;;;;;3.00;0.25;;;;;;;;5102650;27;62084;-75
2024/01/26 11:52:55;;;;;;;;;1.75;1.00;;;;;;;;5101484;27;61998;-75
2024/01/26 11:55:21;;;;;;;;;4.25;2.00;;;;;;;;5100736;27;61656;-75
2024/01/26 11:57:46;;;;;;;;;2.00;0.00;;;;;;;;5101908;27;61882;-75
2024/01/26 12:00:12;;;;;;;;;1.50;0.00;;;;;;;;5102203;27;61760;-75
2024/01/26 12:02:38;;;;;;;;;0.75;0.75;;;;;;;;5096602;27;61745;-75
2024/01/26 12:05:03;;;;;;;;;2.75;0.25;;;;;;;;5097429;27;61620;-75
2024/01/26 12:07:28;;;;;;;;;2.75;0.50;;;;;;;;5103487;27;61840;-75
2024/01/26 12:09:54;;;;;;;;;1.00;1.00;;;;;;;;5111817;27;61751;-75
2024/01/26 12:12:19;;;;;;;;;2.00;1.00;;;;;;;;5112851;27;61869;-75
2024/01/26 12:14:44;;;;;;;;;1.00;1.00;;;;;;;;5112807;27;61901;-75
2024/01/26 12:17:10;;;;;;;;;3.00;1.00;;;;;;;;5110192;27;61842;-75
2024/01/26 12:19:37;;;;;;;;;1.00;1.00;;;;;;;;5110627;27;62284;-75
2024/01/26 12:22:04;;;;;;;;;0.25;0.00;;;;;;;;5109110;27;61795;-75
2024/01/26 12:24:30;;;;;;;;;2.25;1.00;;;;;;;;5110807;27;61854;-75
2024/01/26 12:26:55;;;;;;;;;0.00;0.00;;;;;;;;5111309;27;62196;-75
2024/01/26 12:29:20;;;;;;;;;1.50;0.50;;;;;;;;5109227;27;61973;-75
2024/01/26 12:31:50;;;;;;;;;0.75;0.00;;;;;;;;5108866;27;62004;-75
2024/01/26 12:34:15;;;;;;;;;1.25;1.25;;;;;;;;5111042;27;62089;-76
2024/01/26 12:36:41;;;;;;;;;3.75;1.50;;;;;;;;5106607;27;62432;-76
2024/01/26 12:39:06;;;;;;;;;2.25;1.00;;;;;;;;5104401;27;61729;-76
2024/01/26 12:41:34;;;;;;;;;2.00;1.00;;;;;;;;5104665;27;62143;-76
2024/01/26 12:44:00;;;;;;;;;1.00;0.00;;;;;;;;5119318;27;62023;-76
2024/01/26 12:46:26;;;;;;;;;3.00;0.00;;;;;;;;5114583;27;61896;-76
2024/01/26 12:48:51;;;;;;;;;2.25;0.00;;;;;;;;5104098;27;61646;-76
2024/01/26 12:51:18;;;;;;;;;2.25;0.00;;;;;;;;5103107;27;63806;-76
2024/01/26 12:53:43;;;;;;;;;1.00;0.00;;;;;;;;5109251;27;61671;-76
2024/01/26 12:56:08;;;;;;;;;3.50;0.00;;;;;;;;5123843;27;61968;-76
2024/01/26 12:58:33;;;;;;;;;0.75;0.00;;;;;;;;5105807;27;61939;-76
2024/01/26 13:00:58;;;;;;;;;1.50;0.00;;;;;;;;5107758;27;61708;-76
2024/01/26 13:03:24;;;;;;;;;0.25;0.25;;;;;;;;5113994;27;62025;-76
2024/01/26 13:05:51;;;;;;;;;0.75;0.00;;;;;;;;5115139;27;61912;-76
2024/01/26 13:08:17;;;;;;;;;1.00;0.00;;;;;;;;5114511;27;62103;-76
2024/01/26 13:10:43;;;;;;;;;0.00;0.00;;;;;;;;5111700;27;63997;-76
2024/01/26 13:13:08;;;;;;;;;2.00;1.00;;;;;;;;5115167;27;61819;-76
2024/01/26 13:15:34;;;;;;;;;2.00;0.00;;;;;;;;5114250;27;61879;-76
2024/01/26 13:17:59;;;;;;;;;2.00;2.00;;;;;;;;5113329;27;61963;-76
2024/01/26 13:20:24;;;;;;;;;1.00;0.00;;;;;;;;5123734;27;63612;-76
2024/01/26 13:22:49;;;;;;;;;1.00;0.00;;;;;;;;5125760;27;61942;-76
2024/01/26 13:25:15;;;;;;;;;3.25;0.00;;;;;;;;5124825;27;61822;-76
2024/01/26 13:27:41;;;;;;;;;0.00;0.00;;;;;;;;5119434;27;62098;-76
2024/01/26 13:30:07;;;;;;;;;0.00;0.00;;;;;;;;5114594;27;62670;-76
2024/01/26 13:32:32;;;;;;;;;0.00;0.00;;;;;;;;5111625;27;61890;-76
2024/01/26 13:34:57;;;;;;;;;0.00;0.00;;;;;;;;5104908;27;62352;-76
2024/01/26 13:37:22;;;;;;;;;1.25;0.00;;;;;;;;5114063;27;63057;-76
2024/01/26 13:39:47;;;;;;;;;1.00;0.00;;;;;;;;5115024;27;65125;-75
2024/01/26 13:42:13;;;;;;;;;0.25;0.25;;;;;;;;5104073;27;62006;-76
2024/01/26 13:44:38;;;;;;;;;0.00;0.00;;;;;;;;5103050;27;61995;-76
2024/01/26 13:47:04;;;;;;;;;0.00;0.00;;;;;;;;5100222;27;62096;-76
2024/01/26 13:49:29;;;;;;;;;2.00;1.00;;;;;;;;5101945;27;64958;-76
2024/01/26 13:51:54;;;;;;;;;0.67;0.00;;;;;;;;5103781;27;62037;-76
2024/01/26 13:54:19;;;;;;;;;0.00;0.00;;;;;;;;5102263;27;62058;-76
2024/01/26 13:56:51;;;;;;;;;0.67;0.00;;;;;;;;5104014;27;61956;-76
2024/01/26 13:59:16;;;;;;;;;0.67;0.67;;;;;;;;5102202;27;62072;-76
2024/01/26 14:01:41;;;;;;;;;0.00;0.00;;;;;;;;5101176;27;62164;-76
2024/01/26 14:04:07;;;;;;;;;0.00;0.00;;;;;;;;5103697;27;61795;-77
2024/01/26 14:06:32;;;;;;;;;0.00;0.00;;;;;;;;5092778;27;61763;-76
2024/01/26 14:08:58;;;;;;;;;0.00;0.00;;;;;;;;5082657;27;61865;-77
2024/01/26 14:11:23;;;;;;;;;0.00;0.00;;;;;;;;5080947;28;62060;-78
2024/01/26 14:13:49;;;;;;;;;0.00;0.00;;;;;;;;5083455;27;62053;-78
2024/01/26 14:16:14;;;;;;;;;0.00;0.00;;;;;;;;5081342;28;61810;-79
2024/01/26 14:18:40;;;;;;;;;0.00;0.00;;;;;;;;5086638;27;64090;-76
2024/01/26 14:21:05;;;;;;;;;0.50;0.00;;;;;;;;5103427;27;61814;-76
2024/01/26 14:23:30;;;;;;;;;1.50;0.00;;;;;;;;5101292;27;61761;-76
2024/01/26 14:25:56;;;;;;;;;1.50;0.00;;;;;;;;5103335;27;62041;-76
2024/01/26 14:28:21;;;;;;;;;1.00;0.00;;;;;;;;5100982;27;64092;-77
2024/01/26 14:30:47;;;;;;;;;1.00;0.75;;;;;;;;5100982;27;62082;-75